Time;durP1;ratioP1;P1;durP2;ratioP2;P2;SDS_P1;SDS_P2;PMS_P1;PMS_P2;Temp;Humidity;BMP_temperature;BMP_pressure;BME280_temperature;BME280_humidity;BME280_pressure;Samples;Min_cycle;Max_cycle;Signal;HPM_P1;HPM_P2
2021/04/17 00:01:45;;;;;;;;;;;;;;;-142.75;61.92;79583.19;5089729;28;20421;-75
2021/04/17 00:04:12;;;;;;;;;;;;;;;-142.75;61.75;79583.19;5071571;28;20377;-71
2021/04/17 00:06:37;;;;;;;;;;;;;;;-142.75;61.74;79575.31;5089893;28;20293;-73
2021/04/17 00:09:05;;;;;;;;;;;;;;;-142.75;61.29;79573.34;5071728;28;19912;-75
2021/04/17 00:11:30;;;;;;;;;;;;;;;-142.75;61.63;79591.06;5089596;28;19919;-71
2021/04/17 00:13:55;;;;;;;;;;;;;;;-142.75;61.63;79602.88;5089957;28;19912;-73
2021/04/17 00:16:21;;;;;;;;;;;;;;;-142.75;61.67;79606.84;5089889;28;20069;-73
2021/04/17 00:18:46;;;;;;;;;;;;;;;-142.75;61.69;79606.84;5089565;28;19912;-75
2021/04/17 00:21:11;;;;;;;;;;;;;;;-142.75;61.46;79610.78;5089419;28;19919;-73
2021/04/17 00:23:37;;;;;;;;;;;;;;;-142.75;61.38;79610.78;5089497;28;20381;-73
2021/04/17 00:26:02;;;;;;;;;;;;;;;-142.75;61.57;79606.84;5090086;28;19916;-73
2021/04/17 00:28:27;;;;;;;;;;;;;;;-142.75;61.75;79606.84;5089588;28;20305;-73
2021/04/17 00:30:53;;;;;;;;;;;;;;;-142.75;61.56;79606.84;5089316;28;19969;-73
2021/04/17 00:33:18;;;;;;;;;;;;;;;-142.75;61.84;79612.75;5089791;28;19973;-73
2021/04/17 00:35:43;;;;;;;;;;;;;;;-142.75;61.75;79612.75;5071673;28;19919;-73
2021/04/17 00:38:09;;;;;;;;;;;;;;;-142.75;61.40;79608.81;5071438;28;19965;-73
2021/04/17 00:40:34;;;;;;;;;;;;;;;-142.75;61.71;79608.81;5071383;28;19916;-72
2021/04/17 00:42:59;;;;;;;;;;;;;;;-142.75;61.62;79608.81;5071501;28;19912;-73
2021/04/17 00:45:24;;;;;;;;;;;;;;;-142.75;61.46;79602.88;5089354;28;19962;-73
2021/04/17 00:47:49;;;;;;;;;;;;;;;-142.75;61.56;79606.84;5089285;28;19918;-74
2021/04/17 00:50:15;;;;;;;;;;;;;;;-142.75;61.53;79606.84;5089555;28;19918;-72
2021/04/17 00:52:40;;;;;;;;;;;;;;;-142.75;61.61;79618.66;5089641;28;20347;-73
2021/04/17 00:55:06;;;;;;;;;;;;;;;-142.75;61.50;79616.69;5093980;28;20350;-73
2021/04/17 00:57:31;;;;;;;;;;;;;;;-142.75;61.82;79612.75;5093221;28;19911;-73
2021/04/17 00:59:57;;;;;;;;;;;;;;;-142.75;61.71;79624.56;5093304;28;19920;-73
2021/04/17 01:02:28;;;;;;;;;;;;;;;-142.75;61.75;79628.50;5093031;28;19998;-73
2021/04/17 01:04:55;;;;;;;;;;;;;;;-142.75;62.04;79626.53;5093220;28;19912;-73
2021/04/17 01:07:24;;;;;;;;;;;;;;;-142.75;62.15;79622.59;5075043;28;19912;-75
2021/04/17 01:09:53;;;;;;;;;;;;;;;-142.75;62.43;79622.59;5093159;28;19912;-74
2021/04/17 01:12:20;;;;;;;;;;;;;;;-142.75;62.51;79612.75;5074583;28;19919;-75
2021/04/17 01:14:47;;;;;;;;;;;;;;;-142.75;62.37;79624.56;5093085;28;19916;-75
2021/04/17 01:17:13;;;;;;;;;;;;;;;-142.75;62.43;79616.69;5093153;28;19923;-74
2021/04/17 01:19:38;;;;;;;;;;;;;;;-142.75;62.51;79624.56;5092613;28;19912;-73
2021/04/17 01:22:03;;;;;;;;;;;;;;;-142.75;62.67;79626.53;5092877;28;19916;-75
2021/04/17 01:24:31;;;;;;;;;;;;;;;-142.75;62.39;79622.59;5093124;28;19911;-75
2021/04/17 01:26:56;;;;;;;;;;;;;;;-142.75;62.61;79622.59;5092927;28;19965;-72
2021/04/17 01:29:22;;;;;;;;;;;;;;;-142.75;62.45;79622.59;5092662;28;19912;-75
2021/04/17 01:31:47;;;;;;;;;;;;;;;-142.75;62.41;79612.75;5092539;28;20386;-74
2021/04/17 01:34:13;;;;;;;;;;;;;;;-142.75;62.13;79612.75;5074586;28;20313;-74
2021/04/17 01:36:38;;;;;;;;;;;;;;;-142.75;62.05;79616.69;5092670;28;19965;-72
2021/04/17 01:39:03;;;;;;;;;;;;;;;-142.75;62.05;79618.66;5092547;28;19912;-74
2021/04/17 01:41:30;;;;;;;;;;;;;;;-142.75;62.46;79618.66;5074181;28;19977;-74
2021/04/17 01:43:57;;;;;;;;;;;;;;;-142.75;62.39;79634.41;5092245;28;19912;-73
2021/04/17 01:46:24;;;;;;;;;;;;;;;-142.75;62.46;79642.28;5092416;28;19980;-74
2021/04/17 01:48:52;;;;;;;;;;;;;;;-142.75;62.44;79630.47;5092299;28;19987;-74
2021/04/17 01:51:18;;;;;;;;;;;;;;;-142.75;62.61;79634.41;5092094;28;19912;-72
2021/04/17 01:53:44;;;;;;;;;;;;;;;-142.75;62.57;79624.56;5074488;28;19919;-74
2021/04/17 01:56:10;;;;;;;;;;;;;;;-142.75;62.57;79630.47;5092484;28;19911;-73
2021/04/17 01:58:36;;;;;;;;;;;;;;;-142.75;62.72;79630.47;5092225;28;19912;-74
2021/04/17 02:01:02;;;;;;;;;;;;;;;-142.75;62.71;79624.56;5091921;28;19919;-74
2021/04/17 02:03:27;;;;;;;;;;;;;;;-142.75;62.79;79630.47;5092109;28;19912;-74
2021/04/17 02:05:53;;;;;;;;;;;;;;;-142.75;63.01;79628.50;5091011;28;20373;-74
2021/04/17 02:08:19;;;;;;;;;;;;;;;-142.75;63.00;79632.44;5073916;28;19912;-74
2021/04/17 02:10:45;;;;;;;;;;;;;;;-142.75;63.09;79642.28;5091716;28;20381;-74
2021/04/17 02:13:11;;;;;;;;;;;;;;;-142.75;63.22;79642.28;5073933;28;19916;-74
2021/04/17 02:15:37;;;;;;;;;;;;;;;-142.75;63.10;79638.34;5092051;28;19911;-74
2021/04/17 02:18:07;;;;;;;;;;;;;;;-142.75;63.41;79644.25;5091739;28;19970;-74
2021/04/17 02:20:32;;;;;;;;;;;;;;;-142.75;63.43;79646.22;5073496;28;19916;-73
2021/04/17 02:22:57;;;;;;;;;;;;;;;-142.75;63.76;79642.28;5092020;28;19912;-74
2021/04/17 02:25:23;;;;;;;;;;;;;;;-142.75;63.52;79634.41;5073873;28;20365;-73
2021/04/17 02:27:49;;;;;;;;;;;;;;;-142.75;63.89;79644.25;5091604;28;20327;-74
2021/04/17 02:30:14;;;;;;;;;;;;;;;-142.75;64.01;79642.28;5091668;28;19912;-75
2021/04/17 02:32:39;;;;;;;;;;;;;;;-142.75;64.07;79652.13;5091435;28;20296;-74
2021/04/17 02:35:05;;;;;;;;;;;;;;;-142.75;64.39;79648.19;5091364;28;19916;-73
2021/04/17 02:37:30;;;;;;;;;;;;;;;-142.75;64.60;79646.22;5091405;28;19962;-74
2021/04/17 02:39:55;;;;;;;;;;;;;;;-142.75;64.94;79654.13;5073168;28;20031;-74
2021/04/17 02:42:21;;;;;;;;;;;;;;;-142.75;64.72;79650.16;5072937;28;19916;-74
2021/04/17 02:44:46;;;;;;;;;;;;;;;-142.75;64.64;79648.19;5073143;28;19919;-72
2021/04/17 02:47:12;;;;;;;;;;;;;;;-142.75;64.91;79652.13;5073080;28;19926;-74
2021/04/17 02:49:38;;;;;;;;;;;;;;;-142.75;64.92;79656.09;5073060;28;19918;-72
2021/04/17 02:52:03;;;;;;;;;;;;;;;-142.75;64.95;79648.19;5072877;28;20003;-74
2021/04/17 02:54:28;;;;;;;;;;;;;;;-142.75;65.05;79652.13;5091157;28;19912;-73
2021/04/17 02:56:53;;;;;;;;;;;;;;;-142.75;64.93;79642.28;5091523;28;20299;-74
2021/04/17 02:59:18;;;;;;;;;;;;;;;-142.75;64.81;79650.16;5091043;28;19912;-74
2021/04/17 03:01:44;;;;;;;;;;;;;;;-142.75;65.17;79654.13;5072591;28;19919;-74
2021/04/17 03:04:09;;;;;;;;;;;;;;;-142.75;65.11;79658.06;5090906;28;20405;-72
2021/04/17 03:06:34;;;;;;;;;;;;;;;-142.75;65.37;79658.06;5072733;28;20404;-74
2021/04/17 03:09:00;;;;;;;;;;;;;;;-142.75;65.26;79665.94;5090780;28;19981;-74
2021/04/17 03:11:25;;;;;;;;;;;;;;;-142.75;65.07;79654.13;5090531;28;20010;-74
2021/04/17 03:13:50;;;;;;;;;;;;;;;-142.75;64.92;79658.06;5072477;28;19925;-73
2021/04/17 03:16:15;;;;;;;;;;;;;;;-142.75;65.10;79669.88;5090690;28;19998;-74
2021/04/17 03:18:41;;;;;;;;;;;;;;;-142.75;65.09;79667.91;5090544;28;19967;-74
2021/04/17 03:21:06;;;;;;;;;;;;;;;-142.75;65.15;79673.81;5090657;28;19919;-74
2021/04/17 03:23:31;;;;;;;;;;;;;;;-142.75;65.34;79687.59;5090816;28;19941;-72
2021/04/17 03:25:56;;;;;;;;;;;;;;;-142.75;65.39;79683.66;5072712;28;19916;-74
2021/04/17 03:28:22;;;;;;;;;;;;;;;-142.75;65.54;79673.81;5090514;28;19916;-75
2021/04/17 03:30:47;;;;;;;;;;;;;;;-142.75;65.29;79662.00;5090179;28;20305;-74
2021/04/17 03:33:12;;;;;;;;;;;;;;;-142.75;65.04;79662.00;5072213;28;19919;-74
2021/04/17 03:35:37;;;;;;;;;;;;;;;-142.75;65.06;79663.97;5090430;28;19912;-74
2021/04/17 03:38:03;;;;;;;;;;;;;;;-142.75;65.00;79663.97;5090341;28;20373;-74
2021/04/17 03:40:29;;;;;;;;;;;;;;;-142.75;64.88;79665.94;5089989;28;20482;-72
2021/04/17 03:42:54;;;;;;;;;;;;;;;-142.75;65.09;79669.88;5090094;28;19912;-72
2021/04/17 03:45:19;;;;;;;;;;;;;;;-142.75;64.91;79693.50;5090203;28;19985;-74
2021/04/17 03:47:45;;;;;;;;;;;;;;;-142.75;65.00;79697.44;5090176;28;20435;-74
2021/04/17 03:50:11;;;;;;;;;;;;;;;-142.75;65.12;79687.59;5090287;28;19920;-74
2021/04/17 03:52:36;;;;;;;;;;;;;;;-142.75;65.32;79677.75;5090130;28;19912;-73
2021/04/17 03:55:06;;;;;;;;;;;;;;;-142.75;65.59;79689.56;5090366;28;20392;-75
2021/04/17 03:57:31;;;;;;;;;;;;;;;-142.75;65.31;79689.56;5090213;28;20316;-72
2021/04/17 03:59:56;;;;;;;;;;;;;;;-142.75;65.54;79691.53;5090012;28;20003;-74
2021/04/17 04:02:21;;;;;;;;;;;;;;;-142.75;65.85;79701.38;5089749;28;19915;-74
2021/04/17 04:04:46;;;;;;;;;;;;;;;-142.75;65.95;79703.38;5090086;28;19973;-75
2021/04/17 04:07:12;;;;;;;;;;;;;;;-142.75;66.25;79705.34;5071616;28;19926;-72
2021/04/17 04:09:37;;;;;;;;;;;;;;;-142.75;66.31;79711.25;5089861;28;19955;-74
2021/04/17 04:12:05;;;;;;;;;;;;;;;-142.75;66.13;79717.16;5071591;28;20346;-74
2021/04/17 04:14:30;;;;;;;;;;;;;;;-142.75;66.15;79721.09;5089670;28;19957;-72
2021/04/17 04:16:55;;;;;;;;;;;;;;;-142.75;66.02;79719.13;5089909;28;19919;-74
2021/04/17 04:19:20;;;;;;;;;;;;;;;-142.75;66.18;79725.03;5071624;28;19912;-74
2021/04/17 04:21:45;;;;;;;;;;;;;;;-142.75;66.34;79721.09;5089570;28;19919;-74
2021/04/17 04:24:10;;;;;;;;;;;;;;;-142.75;66.14;79721.09;5071745;28;20377;-73
2021/04/17 04:26:36;;;;;;;;;;;;;;;-142.75;66.21;79709.28;5072188;28;19916;-74
2021/04/17 04:29:02;;;;;;;;;;;;;;;-142.75;66.24;79713.22;5092180;28;20536;-74
2021/04/17 04:31:27;;;;;;;;;;;;;;;-142.75;66.24;79703.38;5093715;28;19951;-74
2021/04/17 04:33:52;;;;;;;;;;;;;;;-142.75;66.29;79685.63;5093730;28;20304;-73
2021/04/17 04:36:17;;;;;;;;;;;;;;;-142.75;65.96;79695.47;5093851;28;19994;-74
2021/04/17 04:38:42;;;;;;;;;;;;;;;-142.75;66.08;79685.63;5075477;28;19965;-74
2021/04/17 04:41:08;;;;;;;;;;;;;;;-142.75;66.00;79703.38;5093506;28;19916;-74
2021/04/17 04:43:33;;;;;;;;;;;;;;;-142.75;66.11;79713.22;5075396;28;19943;-74
2021/04/17 04:45:58;;;;;;;;;;;;;;;-142.75;66.51;79719.13;5093656;28;19915;-74
2021/04/17 04:48:23;;;;;;;;;;;;;;;-142.75;66.16;79742.75;5093627;28;19915;-74
2021/04/17 04:50:48;;;;;;;;;;;;;;;-142.75;66.05;79750.66;5093253;28;19918;-74
2021/04/17 04:53:14;;;;;;;;;;;;;;;-142.75;66.54;79748.66;5093668;28;19945;-74
2021/04/17 04:55:39;;;;;;;;;;;;;;;-142.75;66.87;79748.66;5093966;28;19912;-74
2021/04/17 04:58:04;;;;;;;;;;;;;;;-142.75;66.94;79732.91;5093405;28;19972;-74
2021/04/17 05:00:29;;;;;;;;;;;;;;;-142.75;66.32;79764.44;5093115;28;20007;-74
2021/04/17 05:02:55;;;;;;;;;;;;;;;-142.75;66.77;79754.59;5074995;28;19920;-74
2021/04/17 05:05:20;;;;;;;;;;;;;;;-142.75;66.76;79750.66;5093207;28;20349;-72
2021/04/17 05:07:45;;;;;;;;;;;;;;;-142.75;66.93;79734.88;5093284;28;19912;-74
2021/04/17 05:10:11;;;;;;;;;;;;;;;-142.75;66.92;79723.06;5093137;28;19919;-75
2021/04/17 05:12:36;;;;;;;;;;;;;;;-142.75;66.99;79717.16;5092813;28;19912;-76
2021/04/17 05:15:01;;;;;;;;;;;;;;;-142.75;67.15;79679.72;5093082;28;20018;-73
2021/04/17 05:17:26;;;;;;;;;;;;;;;-142.75;66.78;79679.72;5074942;28;19912;-74
2021/04/17 05:19:53;;;;;;;;;;;;;;;-142.75;66.58;79638.34;5066353;22;19921;-70
2021/04/17 05:22:18;;;;;;;;;;;;;;;-142.75;66.08;79604.88;5049546;28;19917;-68
2021/04/17 05:24:44;;;;;;;;;;;;;;;-142.75;65.23;79565.47;5054477;28;20350;-70
2021/04/17 05:27:09;;;;;;;;;;;;;;;-142.75;64.69;79514.25;5053133;28;20004;-70
2021/04/17 05:29:34;;;;;;;;;;;;;;;-142.75;63.58;79457.13;5063818;28;20430;-69
2021/04/17 05:31:59;;;;;;;;;;;;;;;-142.75;62.80;79390.13;5072209;28;19962;-68
2021/04/17 05:34:24;;;;;;;;;;;;;;;-142.75;61.53;79354.69;5054600;28;19955;-70
2021/04/17 05:36:50;;;;;;;;;;;;;;;-142.75;60.85;79309.38;5072426;28;19920;-71
2021/04/17 05:39:15;;;;;;;;;;;;;;;-142.75;59.70;79240.44;5053871;28;19943;-70
2021/04/17 05:41:40;;;;;;;;;;;;;;;-142.75;59.21;79240.44;5071480;28;19912;-70
2021/04/17 05:44:10;;;;;;;;;;;;;;;-142.75;58.57;79199.06;5072667;28;20010;-70
2021/04/17 05:46:37;;;;;;;;;;;;;;;-142.75;57.39;79145.88;5072037;28;19923;-70
2021/04/17 05:49:02;;;;;;;;;;;;;;;-142.75;57.19;79112.41;5072184;28;19919;-71
2021/04/17 05:51:27;;;;;;;;;;;;;;;-142.75;57.06;79098.63;5071946;28;19912;-71
2021/04/17 05:53:53;;;;;;;;;;;;;;;-142.75;56.36;79049.38;5054345;28;19920;-70
2021/04/17 05:56:18;;;;;;;;;;;;;;;-142.75;56.04;79006.03;5072453;28;19962;-70
2021/04/17 05:58:43;;;;;;;;;;;;;;;-142.75;54.93;78950.88;5071992;28;19937;-71
2021/04/17 06:01:08;;;;;;;;;;;;;;;-142.75;54.60;78931.19;5072040;28;19964;-71
2021/04/17 06:03:33;;;;;;;;;;;;;;;-142.75;53.64;78878.00;5072060;28;19920;-68
2021/04/17 06:05:58;;;;;;;;;;;;;;;-142.75;53.22;78832.72;5053648;28;19958;-70
2021/04/17 06:08:24;;;;;;;;;;;;;;;-142.75;52.30;78781.50;5053682;28;20380;-71
2021/04/17 06:10:49;;;;;;;;;;;;;;;-142.75;52.11;78751.97;5036931;28;19916;-71
2021/04/17 06:13:14;;;;;;;;;;;;;;;-142.75;52.34;78744.09;5071807;28;19920;-70
2021/04/17 06:15:39;;;;;;;;;;;;;;;-142.75;51.21;78696.81;5071762;28;19965;-69
2021/04/17 06:18:05;;;;;;;;;;;;;;;-142.75;50.39;78645.59;5053529;28;19916;-70
2021/04/17 06:20:30;;;;;;;;;;;;;;;-142.75;50.14;78621.97;5071314;28;19912;-69
2021/04/17 06:22:56;;;;;;;;;;;;;;;-142.75;49.40;78582.59;5071736;28;20383;-71
2021/04/17 06:25:21;;;;;;;;;;;;;;;-142.75;49.07;78572.72;5071464;28;19947;-71
2021/04/17 06:27:46;;;;;;;;;;;;;;;-142.75;48.46;78505.78;5071758;28;19913;-71
2021/04/17 06:30:11;;;;;;;;;;;;;;;-142.75;48.44;78495.94;5070692;28;19912;-71
2021/04/17 06:32:37;;;;;;;;;;;;;;;-142.75;46.98;78403.38;5053234;28;19924;-71
2021/04/17 06:35:02;;;;;;;;;;;;;;;-142.75;47.32;78373.81;5071264;28;19916;-69
2021/04/17 06:37:27;;;;;;;;;;;;;;;-142.75;46.83;78334.44;5071484;28;19916;-70
2021/04/17 06:39:52;;;;;;;;;;;;;;;-142.75;45.53;78263.53;5071184;28;19923;-74
2021/04/17 06:42:19;;;;;;;;;;;;;;;-142.75;45.12;78226.13;5053069;28;19919;-71
2021/04/17 06:44:44;;;;;;;;;;;;;;;-142.75;45.18;78261.56;5070979;28;19960;-70
2021/04/17 06:47:11;;;;;;;;;;;;;;;-142.75;44.86;78224.16;5071015;28;20391;-71
2021/04/17 06:49:38;;;;;;;;;;;;;;;-142.75;44.73;78184.78;5070728;28;19912;-71
2021/04/17 06:52:04;;;;;;;;;;;;;;;-142.75;43.30;78125.69;5052199;28;19912;-69
2021/04/17 06:54:29;;;;;;;;;;;;;;;-142.75;43.04;78080.41;5071684;28;20391;-72
2021/04/17 06:56:54;;;;;;;;;;;;;;;-142.75;43.15;78082.38;5071512;28;19958;-71
2021/04/17 06:59:20;;;;;;;;;;;;;;;-142.75;42.62;78050.84;5070774;28;20293;-72
2021/04/17 07:01:45;;;;;;;;;;;;;;;-142.75;41.11;78039.03;5052610;28;19916;-71
2021/04/17 07:04:12;;;;;;;;;;;;;;;-142.75;42.23;78048.88;5070867;28;19912;-72
2021/04/17 07:06:38;;;;;;;;;;;;;;;-142.75;41.71;78017.38;5070440;28;19925;-73
2021/04/17 07:09:03;;;;;;;;;;;;;;;-142.75;41.85;77979.97;5049609;28;19912;-70
2021/04/17 07:11:29;;;;;;;;;;;;;;;-142.75;41.56;77964.22;5052432;28;20014;-72
2021/04/17 07:14:03;;;;;;;;;;;;;;;-142.75;40.02;77920.91;5070988;28;19919;-71
2021/04/17 07:16:28;;;;;;;;;;;;;;;-142.75;39.68;77881.50;5071120;28;20385;-71
2021/04/17 07:18:53;;;;;;;;;;;;;;;-142.75;38.47;77859.84;5071011;28;19918;-72
2021/04/17 07:21:19;;;;;;;;;;;;;;;-142.75;39.61;77830.31;5070898;28;19999;-70
2021/04/17 07:23:45;;;;;;;;;;;;;;;-142.75;38.44;77779.13;5053235;28;19962;-72
2021/04/17 07:26:11;;;;;;;;;;;;;;;-142.75;37.64;77765.34;5071579;28;19916;-71
2021/04/17 07:28:37;;;;;;;;;;;;;;;-142.75;37.65;77759.44;5053032;28;19912;-71
2021/04/17 07:31:02;;;;;;;;;;;;;;;-142.75;36.54;77749.59;5052612;28;20298;-71
2021/04/17 07:33:28;;;;;;;;;;;;;;;-142.75;36.86;77739.75;5070849;28;19916;-69
2021/04/17 07:35:54;;;;;;;;;;;;;;;-142.75;36.67;77712.16;5070614;28;19927;-73
2021/04/17 07:38:40;;;;;;;;;;;;;;;-142.75;35.57;77684.59;5070747;28;19962;-67
2021/04/17 07:41:06;;;;;;;;;;;;;;;-142.75;35.07;77698.38;5052264;28;19919;-71
2021/04/17 07:43:48;;;;;;;;;;;;;;;-142.75;34.75;77662.94;5070726;28;19912;-70
2021/04/17 07:46:15;;;;;;;;;;;;;;;-142.75;35.03;77617.66;5070589;28;20122;-71
2021/04/17 07:48:40;;;;;;;;;;;;;;;-142.75;33.59;77566.47;5067656;28;19959;-70
2021/04/17 07:51:07;;;;;;;;;;;;;;;-142.75;33.45;77550.72;5070500;28;19951;-71
2021/04/17 07:53:37;;;;;;;;;;;;;;;-142.75;33.64;77556.63;5070525;28;19913;-69
2021/04/17 07:56:21;;;;;;;;;;;;;;;-142.75;34.41;77495.59;5053100;28;19924;-72
2021/04/17 07:58:47;;;;;;;;;;;;;;;-142.75;32.93;77489.69;5070334;28;19967;-72
2021/04/17 08:01:13;;;;;;;;;;;;;;;-142.75;33.85;77458.16;5070204;28;19913;-71
2021/04/17 08:03:38;;;;;;;;;;;;;;;-142.75;33.59;77405.00;5051709;28;19919;-72
2021/04/17 08:06:04;;;;;;;;;;;;;;;-142.75;31.75;77401.06;5070400;28;20339;-70
2021/04/17 08:08:29;;;;;;;;;;;;;;;-142.75;31.65;77406.97;5070204;28;19999;-71
2021/04/17 08:10:55;;;;;;;;;;;;;;;-142.75;31.56;77420.75;5070261;28;20003;-73
2021/04/17 08:13:20;;;;;;;;;;;;;;;-142.75;31.14;77406.97;5070314;28;19913;-71
2021/04/17 08:15:46;;;;;;;;;;;;;;;-142.75;32.01;77428.63;5051664;28;19927;-72
2021/04/17 08:18:11;;;;;;;;;;;;;;;-142.75;31.21;77448.34;5052238;28;19913;-71
2021/04/17 08:20:37;;;;;;;;;;;;;;;-142.75;30.48;77416.81;5069730;28;20308;-72
2021/04/17 08:23:02;;;;;;;;;;;;;;;-142.75;29.71;77349.88;5070240;28;20005;-69
2021/04/17 08:25:28;;;;;;;;;;;;;;;-142.75;30.53;77342.00;5052365;28;19963;-71
2021/04/17 08:27:53;;;;;;;;;;;;;;;-142.75;29.75;77408.94;5070828;28;20324;-71
2021/04/17 08:30:20;;;;;;;;;;;;;;;-142.75;29.32;77355.78;5052024;28;19919;-70
2021/04/17 08:32:46;;;;;;;;;;;;;;;-142.75;29.91;77353.81;5069996;28;19918;-74
2021/04/17 08:35:25;;;;;;;;;;;;;;;-142.75;29.37;77371.53;5070302;28;19927;-72
2021/04/17 08:37:51;;;;;;;;;;;;;;;-142.75;28.92;77347.91;5070211;28;19919;-71
2021/04/17 08:40:36;;;;;;;;;;;;;;;-142.75;28.79;77342.00;5069947;28;19920;-71
2021/04/17 08:43:22;;;;;;;;;;;;;;;-142.75;28.37;77298.69;5069760;28;19957;-71
2021/04/17 08:45:59;;;;;;;;;;;;;;;-142.75;27.77;77334.13;5059251;28;20376;-71
2021/04/17 08:48:43;;;;;;;;;;;;;;;-142.75;28.21;77294.75;5052002;28;19912;-70
2021/04/17 08:51:20;;;;;;;;;;;;;;;-142.75;28.57;77227.81;5069659;28;20341;-72
2021/04/17 08:53:45;;;;;;;;;;;;;;;-142.75;25.99;77275.06;5069617;28;19919;-73
2021/04/17 08:56:11;;;;;;;;;;;;;;;-142.75;27.20;77192.38;5070386;28;19912;-71
2021/04/17 08:58:36;;;;;;;;;;;;;;;-142.75;26.65;77190.41;5069919;28;20420;-72
2021/04/17 09:01:01;;;;;;;;;;;;;;;-142.75;26.95;77186.47;5051952;28;19912;-73
2021/04/17 09:03:43;;;;;;;;;;;;;;;-142.75;28.17;77145.13;5069795;28;19912;-75
2021/04/17 09:06:21;;;;;;;;;;;;;;;-142.75;26.62;77048.66;5069681;28;19916;-73
2021/04/17 09:09:04;;;;;;;;;;;;;;;-142.75;26.06;77062.44;5068037;28;19948;-72
2021/04/17 09:11:36;;;;;;;;;;;;;;;-142.75;26.26;77050.63;5051545;28;19919;-72
2021/04/17 09:14:03;;;;;;;;;;;;;;;-142.75;25.43;76981.72;5070327;28;20010;-71
2021/04/17 09:16:39;;;;;;;;;;;;;;;-142.75;26.03;76946.28;5055455;28;19923;-72
2021/04/17 09:19:04;;;;;;;;;;;;;;;-142.75;25.97;76942.34;5055541;28;20293;-72
2021/04/17 09:21:30;;;;;;;;;;;;;;;-142.75;25.82;76967.94;5073150;28;19920;-72
2021/04/17 09:23:56;;;;;;;;;;;;;;;-142.75;25.39;76928.56;5073529;28;19916;-72
2021/04/17 09:26:30;;;;;;;;;;;;;;;-142.75;26.03;76987.63;5073972;28;19973;-72
2021/04/17 09:28:56;;;;;;;;;;;;;;;-142.75;25.86;76991.56;5055007;28;19913;-72
2021/04/17 09:31:22;;;;;;;;;;;;;;;-142.75;26.64;76979.75;5073180;28;19912;-71
2021/04/17 09:33:47;;;;;;;;;;;;;;;-142.75;26.15;76901.00;5073009;28;20822;-72
2021/04/17 09:36:19;;;;;;;;;;;;;;;-142.75;26.73;76893.13;5055135;28;19908;-72
2021/04/17 09:38:44;;;;;;;;;;;;;;;-142.75;26.06;76861.63;5072904;28;19921;-71
2021/04/17 09:41:09;;;;;;;;;;;;;;;-142.75;25.01;76883.28;5072985;28;19913;-72
2021/04/17 09:43:35;;;;;;;;;;;;;;;-142.75;25.57;76873.44;5054912;28;19912;-74
2021/04/17 09:46:04;;;;;;;;;;;;;;;-142.75;25.63;76790.78;5072828;28;19916;-74
2021/04/17 09:48:40;;;;;;;;;;;;;;;-142.75;25.93;76808.50;5054929;28;19966;-71
2021/04/17 09:51:16;;;;;;;;;;;;;;;-142.75;25.27;76853.75;5072513;28;19913;-72
2021/04/17 09:53:41;;;;;;;;;;;;;;;-142.75;25.65;76788.81;5072372;28;19919;-72
2021/04/17 09:56:14;;;;;;;;;;;;;;;-142.75;25.76;76802.56;5073115;28;19916;-72
2021/04/17 09:58:44;;;;;;;;;;;;;;;-142.75;26.10;76763.22;5072845;28;19912;-72
2021/04/17 10:01:14;;;;;;;;;;;;;;;-142.75;25.71;76875.41;5054596;28;19920;-71
2021/04/17 10:03:40;;;;;;;;;;;;;;;-142.75;25.73;76814.38;5054678;28;19959;-72
2021/04/17 10:06:22;;;;;;;;;;;;;;;-142.75;25.23;76757.31;5072690;28;19960;-71
2021/04/17 10:08:47;;;;;;;;;;;;;;;-142.75;24.68;76704.16;5054417;28;20301;-73
2021/04/17 10:11:20;;;;;;;;;;;;;;;-142.75;24.61;76690.38;5054097;28;19912;-71
2021/04/17 10:13:46;;;;;;;;;;;;;;;-142.75;25.47;76889.19;5072303;28;19965;-72
2021/04/17 10:16:12;;;;;;;;;;;;;;;-142.75;25.57;77023.06;5072582;28;19912;-71
2021/04/17 10:18:38;;;;;;;;;;;;;;;-142.75;26.17;76902.97;5054115;28;20320;-73
2021/04/17 10:21:04;;;;;;;;;;;;;;;-142.75;26.67;77058.50;5072159;28;19912;-71
2021/04/17 10:23:30;;;;;;;;;;;;;;;-142.75;25.74;76924.63;5072257;28;20397;-73
2021/04/17 10:26:01;;;;;;;;;;;;;;;-142.75;25.45;76885.25;5071395;28;19974;-72
2021/04/17 10:28:29;;;;;;;;;;;;;;;-142.75;25.45;76851.78;5072429;28;20000;-72
2021/04/17 10:30:56;;;;;;;;;;;;;;;-142.75;25.72;76790.78;5071912;28;19919;-72
2021/04/17 10:33:22;;;;;;;;;;;;;;;-142.75;24.75;76818.31;5071663;28;19913;-70
2021/04/17 10:35:48;;;;;;;;;;;;;;;-142.75;26.05;76920.69;5072288;28;20336;-71
2021/04/17 10:38:31;;;;;;;;;;;;;;;-142.75;25.67;76826.19;5072004;28;19960;-71
2021/04/17 10:40:57;;;;;;;;;;;;;;;-142.75;25.72;76830.13;5071567;28;19961;-72
2021/04/17 10:43:22;;;;;;;;;;;;;;;-142.75;24.33;76830.13;5072054;28;19912;-72
2021/04/17 10:45:49;;;;;;;;;;;;;;;-142.75;24.66;76782.91;5071689;28;21174;-71
2021/04/17 10:48:17;;;;;;;;;;;;;;;-142.75;25.37;76948.25;5071636;28;19919;-70
2021/04/17 10:51:03;;;;;;;;;;;;;;;-142.75;26.87;77117.56;5053904;28;20325;-72
2021/04/17 10:53:32;;;;;;;;;;;;;;;-142.75;26.81;77168.75;5071466;28;19962;-70
2021/04/17 10:55:59;;;;;;;;;;;;;;;-142.75;25.74;77023.06;5071711;28;19927;-72
2021/04/17 10:58:26;;;;;;;;;;;;;;;-142.75;26.36;76889.19;5071723;28;20002;-71
2021/04/17 11:00:56;;;;;;;;;;;;;;;-142.75;24.77;76875.41;5053131;28;19909;-72
2021/04/17 11:03:22;;;;;;;;;;;;;;;-142.75;26.15;76836.03;5071347;28;19958;-72
2021/04/17 11:05:48;;;;;;;;;;;;;;;-142.75;25.11;76867.53;5071346;28;20022;-72
2021/04/17 11:08:19;;;;;;;;;;;;;;;-142.75;25.05;76936.44;5053524;28;19912;-72
2021/04/17 11:10:45;;;;;;;;;;;;;;;-142.75;25.78;76995.50;5070788;28;19947;-73
2021/04/17 11:13:10;;;;;;;;;;;;;;;-142.75;26.04;76979.75;5071427;28;19962;-73
2021/04/17 11:15:36;;;;;;;;;;;;;;;-142.75;25.80;76861.63;5071197;28;19912;-73
2021/04/17 11:18:08;;;;;;;;;;;;;;;-142.75;25.31;76834.06;5071337;28;20279;-73
2021/04/17 11:20:42;;;;;;;;;;;;;;;-142.75;24.99;76901.00;5072092;28;20325;-72
2021/04/17 11:23:27;;;;;;;;;;;;;;;-142.75;26.23;76877.38;5071167;28;19962;-72
2021/04/17 11:25:52;;;;;;;;;;;;;;;-142.75;25.48;76924.63;5070976;28;19924;-72
2021/04/17 11:28:17;;;;;;;;;;;;;;;-142.75;26.19;77078.19;5071434;28;19931;-71
2021/04/17 11:30:42;;;;;;;;;;;;;;;-142.75;28.03;77259.31;5070584;28;19909;-72
2021/04/17 11:33:07;;;;;;;;;;;;;;;-142.75;29.23;77280.97;5070903;28;19916;-73
2021/04/17 11:35:33;;;;;;;;;;;;;;;-142.75;28.61;77219.94;5070797;28;19912;-72
2021/04/17 11:37:58;;;;;;;;;;;;;;;-142.75;28.38;77269.16;5052982;28;20320;-71
2021/04/17 11:40:23;;;;;;;;;;;;;;;-142.75;28.52;77355.78;5070527;28;19974;-72
2021/04/17 11:42:48;;;;;;;;;;;;;;;-142.75;28.88;77328.22;5070558;28;19912;-72
2021/04/17 11:45:14;;;;;;;;;;;;;;;-142.75;27.84;77436.50;5070852;28;19912;-72
2021/04/17 11:47:40;;;;;;;;;;;;;;;-142.75;30.48;77444.38;5070528;28;20007;-72
2021/04/17 11:50:06;;;;;;;;;;;;;;;-142.75;31.61;77477.88;5070761;28;20003;-72
2021/04/17 11:52:31;;;;;;;;;;;;;;;-142.75;32.12;77550.72;5051929;28;20007;-69
2021/04/17 11:54:56;;;;;;;;;;;;;;;-142.75;31.95;77594.03;5070515;28;20388;-71
2021/04/17 11:57:21;;;;;;;;;;;;;;;-142.75;31.93;77633.41;5053318;28;19913;-71
2021/04/17 11:59:46;;;;;;;;;;;;;;;-142.75;33.53;77680.66;5070477;28;20289;-71
2021/04/17 12:02:12;;;;;;;;;;;;;;;-142.75;34.04;77680.66;5052322;28;20002;-71
2021/04/17 12:04:37;;;;;;;;;;;;;;;-142.75;32.45;77678.69;5070242;28;19916;-71
2021/04/17 12:07:02;;;;;;;;;;;;;;;-142.75;32.57;77708.22;5052343;28;20396;-71
2021/04/17 12:09:28;;;;;;;;;;;;;;;-142.75;32.29;77686.56;5070343;28;19917;-70
2021/04/17 12:11:53;;;;;;;;;;;;;;;-142.75;32.10;77700.34;5070237;28;20007;-70
2021/04/17 12:14:18;;;;;;;;;;;;;;;-142.75;30.26;77698.38;5070589;28;19912;-70
2021/04/17 12:16:43;;;;;;;;;;;;;;;-142.75;31.59;77723.97;5070261;28;20374;-72
2021/04/17 12:19:08;;;;;;;;;;;;;;;-142.75;32.47;77753.53;5069796;28;19919;-72
2021/04/17 12:21:33;;;;;;;;;;;;;;;-142.75;32.62;77810.63;5070277;28;19912;-73
2021/04/17 12:23:59;;;;;;;;;;;;;;;-142.75;33.91;77853.94;5070252;28;19947;-70
2021/04/17 12:26:24;;;;;;;;;;;;;;;-142.75;32.46;77871.66;5052650;28;20041;-71